sensor_id;sensor_type;location;lat;lon;timestamp;temperature;humidity
27567;DHT22;15006;48.584;9.186;2023-04-03T00:01:18;1.70;98.50
27567;DHT22;15006;48.584;9.186;2023-04-03T00:03:44;1.70;98.50
27567;DHT22;15006;48.584;9.186;2023-04-03T00:06:10;1.70;98.50
27567;DHT22;15006;48.584;9.186;2023-04-03T00:08:38;1.70;98.40
27567;DHT22;15006;48.584;9.186;2023-04-03T00:11:05;1.60;98.20
27567;DHT22;15006;48.584;9.186;2023-04-03T00:13:32;1.60;98.30
27567;DHT22;15006;48.584;9.186;2023-04-03T00:15:59;1.60;98.10
27567;DHT22;15006;48.584;9.186;2023-04-03T00:18:25;1.60;98.30
27567;DHT22;15006;48.584;9.186;2023-04-03T00:20:51;1.60;98.20
27567;DHT22;15006;48.584;9.186;2023-04-03T00:23:17;1.60;98.20
27567;DHT22;15006;48.584;9.186;2023-04-03T00:25:43;1.60;98.20
27567;DHT22;15006;48.584;9.186;2023-04-03T00:28:09;1.60;98.10
27567;DHT22;15006;48.584;9.186;2023-04-03T00:30:35;1.60;98.10
27567;DHT22;15006;48.584;9.186;2023-04-03T00:33:02;1.50;97.90
27567;DHT22;15006;48.584;9.186;2023-04-03T00:35:28;1.50;97.90
27567;DHT22;15006;48.584;9.186;2023-04-03T00:37:55;1.50;97.70
27567;DHT22;15006;48.584;9.186;2023-04-03T00:40:24;1.50;97.80
27567;DHT22;15006;48.584;9.186;2023-04-03T00:42:55;1.50;97.60
27567;DHT22;15006;48.584;9.186;2023-04-03T00:45:38;1.50;97.80
27567;DHT22;15006;48.584;9.186;2023-04-03T00:48:07;1.50;96.60
27567;DHT22;15006;48.584;9.186;2023-04-03T00:50:39;1.40;97.70
27567;DHT22;15006;48.584;9.186;2023-04-03T00:53:10;1.40;97.50
27567;DHT22;15006;48.584;9.186;2023-04-03T00:55:39;1.40;97.50
27567;DHT22;15006;48.584;9.186;2023-04-03T00:58:06;1.40;97.80
27567;DHT22;15006;48.584;9.186;2023-04-03T01:00:33;1.40;97.90
27567;DHT22;15006;48.584;9.186;2023-04-03T01:03:00;1.40;97.90
27567;DHT22;15006;48.584;9.186;2023-04-03T01:05:27;1.40;98.00
27567;DHT22;15006;48.584;9.186;2023-04-03T01:07:55;1.30;97.90
27567;DHT22;15006;48.584;9.186;2023-04-03T01:10:23;1.30;97.90
27567;DHT22;15006;48.584;9.186;2023-04-03T01:12:51;1.30;97.90
27567;DHT22;15006;48.584;9.186;2023-04-03T01:15:26;1.30;97.90
27567;DHT22;15006;48.584;9.186;2023-04-03T01:17:57;1.30;96.80
27567;DHT22;15006;48.584;9.186;2023-04-03T01:25:46;1.20;96.50
27567;DHT22;15006;48.584;9.186;2023-04-03T01:28:29;1.20;97.00
27567;DHT22;15006;48.584;9.186;2023-04-03T01:31:27;1.20;97.70
27567;DHT22;15006;48.584;9.186;2023-04-03T01:34:00;1.20;96.10
27567;DHT22;15006;48.584;9.186;2023-04-03T01:36:29;1.20;98.00
27567;DHT22;15006;48.584;9.186;2023-04-03T01:38:58;1.20;97.50
27567;DHT22;15006;48.584;9.186;2023-04-03T01:41:25;1.20;97.60
27567;DHT22;15006;48.584;9.186;2023-04-03T01:43:52;1.20;97.90
27567;DHT22;15006;48.584;9.186;2023-04-03T01:46:18;1.10;97.90
27567;DHT22;15006;48.584;9.186;2023-04-03T01:48:46;1.10;97.80
27567;DHT22;15006;48.584;9.186;2023-04-03T01:51:12;1.10;97.80
27567;DHT22;15006;48.584;9.186;2023-04-03T01:53:38;1.10;97.80
27567;DHT22;15006;48.584;9.186;2023-04-03T01:56:04;1.10;97.80
27567;DHT22;15006;48.584;9.186;2023-04-03T01:58:31;1.10;97.80
27567;DHT22;15006;48.584;9.186;2023-04-03T02:00:57;1.10;97.80
27567;DHT22;15006;48.584;9.186;2023-04-03T02:03:23;1.00;97.80
27567;DHT22;15006;48.584;9.186;2023-04-03T02:05:49;1.00;97.70
27567;DHT22;15006;48.584;9.186;2023-04-03T02:08:16;1.00;97.70
27567;DHT22;15006;48.584;9.186;2023-04-03T02:10:46;1.00;97.90
27567;DHT22;15006;48.584;9.186;2023-04-03T02:13:13;1.00;97.70
27567;DHT22;15006;48.584;9.186;2023-04-03T02:15:39;1.00;98.00
27567;DHT22;15006;48.584;9.186;2023-04-03T02:18:06;0.90;98.00
27567;DHT22;15006;48.584;9.186;2023-04-03T02:20:32;1.00;97.90
27567;DHT22;15006;48.584;9.186;2023-04-03T02:22:59;1.00;98.00
27567;DHT22;15006;48.584;9.186;2023-04-03T02:25:26;1.00;97.80
27567;DHT22;15006;48.584;9.186;2023-04-03T02:27:52;0.90;97.90
27567;DHT22;15006;48.584;9.186;2023-04-03T02:30:18;0.90;97.90
27567;DHT22;15006;48.584;9.186;2023-04-03T02:32:44;0.90;97.90
27567;DHT22;15006;48.584;9.186;2023-04-03T02:35:11;0.90;97.90
27567;DHT22;15006;48.584;9.186;2023-04-03T02:37:37;0.90;97.80
27567;DHT22;15006;48.584;9.186;2023-04-03T02:40:04;0.90;97.90
27567;DHT22;15006;48.584;9.186;2023-04-03T02:42:31;0.90;98.00
27567;DHT22;15006;48.584;9.186;2023-04-03T02:44:58;0.90;97.70
27567;DHT22;15006;48.584;9.186;2023-04-03T02:47:27;0.90;97.70
27567;DHT22;15006;48.584;9.186;2023-04-03T02:49:53;0.90;97.60
27567;DHT22;15006;48.584;9.186;2023-04-03T02:52:19;0.90;97.90
27567;DHT22;15006;48.584;9.186;2023-04-03T02:54:46;0.90;97.80
27567;DHT22;15006;48.584;9.186;2023-04-03T02:57:12;0.90;97.80
27567;DHT22;15006;48.584;9.186;2023-04-03T02:59:38;0.90;97.80
27567;DHT22;15006;48.584;9.186;2023-04-03T03:02:10;0.90;97.80
27567;DHT22;15006;48.584;9.186;2023-04-03T03:04:37;0.90;97.20
27567;DHT22;15006;48.584;9.186;2023-04-03T03:07:03;0.90;97.90
27567;DHT22;15006;48.584;9.186;2023-04-03T03:09:29;0.90;97.70
27567;DHT22;15006;48.584;9.186;2023-04-03T03:11:58;0.90;97.90
27567;DHT22;15006;48.584;9.186;2023-04-03T03:14:24;0.90;98.10
27567;DHT22;15006;48.584;9.186;2023-04-03T03:16:51;0.90;98.10
27567;DHT22;15006;48.584;9.186;2023-04-03T03:19:17;0.90;98.00
27567;DHT22;15006;48.584;9.186;2023-04-03T03:21:43;0.90;98.00
27567;DHT22;15006;48.584;9.186;2023-04-03T03:24:09;0.90;98.00
27567;DHT22;15006;48.584;9.186;2023-04-03T03:26:35;1.00;97.90
27567;DHT22;15006;48.584;9.186;2023-04-03T03:29:02;0.90;97.90
27567;DHT22;15006;48.584;9.186;2023-04-03T03:31:28;0.90;97.90
27567;DHT22;15006;48.584;9.186;2023-04-03T03:33:54;0.90;97.80
27567;DHT22;15006;48.584;9.186;2023-04-03T03:36:20;0.90;98.20
27567;DHT22;15006;48.584;9.186;2023-04-03T03:38:46;1.00;97.90
27567;DHT22;15006;48.584;9.186;2023-04-03T03:41:12;0.90;97.70
27567;DHT22;15006;48.584;9.186;2023-04-03T03:43:38;0.90;97.70
27567;DHT22;15006;48.584;9.186;2023-04-03T03:46:04;0.90;97.80
27567;DHT22;15006;48.584;9.186;2023-04-03T03:48:30;0.90;97.70
27567;DHT22;15006;48.584;9.186;2023-04-03T03:50:57;0.90;97.70
27567;DHT22;15006;48.584;9.186;2023-04-03T03:53:23;0.90;97.80
27567;DHT22;15006;48.584;9.186;2023-04-03T03:55:49;0.90;97.90
27567;DHT22;15006;48.584;9.186;2023-04-03T03:58:15;0.90;97.90
27567;DHT22;15006;48.584;9.186;2023-04-03T04:00:41;0.90;97.90
27567;DHT22;15006;48.584;9.186;2023-04-03T04:03:07;0.90;97.90
27567;DHT22;15006;48.584;9.186;2023-04-03T04:05:33;0.90;98.00
27567;DHT22;15006;48.584;9.186;2023-04-03T04:08:00;0.90;98.00
27567;DHT22;15006;48.584;9.186;2023-04-03T04:10:26;0.90;97.90
27567;DHT22;15006;48.584;9.186;2023-04-03T04:12:52;0.90;97.80
27567;DHT22;15006;48.584;9.186;2023-04-03T04:15:18;0.90;97.80
27567;DHT22;15006;48.584;9.186;2023-04-03T04:17:44;0.90;97.70
27567;DHT22;15006;48.584;9.186;2023-04-03T04:20:10;0.90;97.80
27567;DHT22;15006;48.584;9.186;2023-04-03T04:22:37;0.90;97.60
27567;DHT22;15006;48.584;9.186;2023-04-03T04:25:04;0.90;98.00
27567;DHT22;15006;48.584;9.186;2023-04-03T04:27:31;0.90;97.90
27567;DHT22;15006;48.584;9.186;2023-04-03T04:29:57;0.80;97.90
27567;DHT22;15006;48.584;9.186;2023-04-03T04:32:23;0.90;97.90
27567;DHT22;15006;48.584;9.186;2023-04-03T04:34:49;0.90;97.90
27567;DHT22;15006;48.584;9.186;2023-04-03T04:37:15;0.90;97.90
27567;DHT22;15006;48.584;9.186;2023-04-03T04:39:41;0.80;98.00
27567;DHT22;15006;48.584;9.186;2023-04-03T04:42:07;0.80;98.00
27567;DHT22;15006;48.584;9.186;2023-04-03T04:44:38;0.80;98.10
27567;DHT22;15006;48.584;9.186;2023-04-03T04:47:05;0.90;95.20
27567;DHT22;15006;48.584;9.186;2023-04-03T04:49:31;0.90;98.30
27567;DHT22;15006;48.584;9.186;2023-04-03T04:51:57;0.90;98.10
27567;DHT22;15006;48.584;9.186;2023-04-03T04:54:23;0.90;97.90
27567;DHT22;15006;48.584;9.186;2023-04-03T04:56:49;0.90;97.60
27567;DHT22;15006;48.584;9.186;2023-04-03T04:59:15;0.90;97.60
27567;DHT22;15006;48.584;9.186;2023-04-03T05:01:41;0.90;97.40
27567;DHT22;15006;48.584;9.186;2023-04-03T05:04:07;0.90;97.50
27567;DHT22;15006;48.584;9.186;2023-04-03T05:06:34;0.90;97.30
27567;DHT22;15006;48.584;9.186;2023-04-03T05:09:01;0.90;97.20
27567;DHT22;15006;48.584;9.186;2023-04-03T05:11:27;0.90;97.20
27567;DHT22;15006;48.584;9.186;2023-04-03T05:13:53;0.90;96.90
27567;DHT22;15006;48.584;9.186;2023-04-03T05:16:19;0.90;96.90
27567;DHT22;15006;48.584;9.186;2023-04-03T05:18:45;0.90;96.90
27567;DHT22;15006;48.584;9.186;2023-04-03T05:21:12;0.90;96.80
27567;DHT22;15006;48.584;9.186;2023-04-03T05:23:38;0.90;96.80
27567;DHT22;15006;48.584;9.186;2023-04-03T05:26:04;0.90;96.70
27567;DHT22;15006;48.584;9.186;2023-04-03T05:28:30;0.90;96.80
27567;DHT22;15006;48.584;9.186;2023-04-03T05:30:56;1.00;96.60
27567;DHT22;15006;48.584;9.186;2023-04-03T05:33:24;1.00;96.40
27567;DHT22;15006;48.584;9.186;2023-04-03T05:35:52;1.00;96.50
27567;DHT22;15006;48.584;9.186;2023-04-03T05:38:19;1.00;96.20
27567;DHT22;15006;48.584;9.186;2023-04-03T05:40:45;1.00;96.20
27567;DHT22;15006;48.584;9.186;2023-04-03T05:43:11;1.00;96.10
27567;DHT22;15006;48.584;9.186;2023-04-03T05:45:38;1.00;96.10
27567;DHT22;15006;48.584;9.186;2023-04-03T05:48:04;1.00;96.20
27567;DHT22;15006;48.584;9.186;2023-04-03T05:50:30;1.00;96.20
27567;DHT22;15006;48.584;9.186;2023-04-03T05:52:57;1.10;96.30
27567;DHT22;15006;48.584;9.186;2023-04-03T05:55:24;1.10;95.90
27567;DHT22;15006;48.584;9.186;2023-04-03T05:57:51;1.10;96.40
27567;DHT22;15006;48.584;9.186;2023-04-03T06:00:17;1.10;96.30
27567;DHT22;15006;48.584;9.186;2023-04-03T06:02:44;1.10;95.90
27567;DHT22;15006;48.584;9.186;2023-04-03T06:05:10;1.20;95.90
27567;DHT22;15006;48.584;9.186;2023-04-03T06:07:37;1.20;95.70
27567;DHT22;15006;48.584;9.186;2023-04-03T06:10:04;1.20;95.40
27567;DHT22;15006;48.584;9.186;2023-04-03T06:12:31;1.20;95.00
27567;DHT22;15006;48.584;9.186;2023-04-03T06:14:57;1.20;95.20
27567;DHT22;15006;48.584;9.186;2023-04-03T06:17:23;1.30;95.20
27567;DHT22;15006;48.584;9.186;2023-04-03T06:19:49;1.30;95.30
27567;DHT22;15006;48.584;9.186;2023-04-03T06:22:15;1.30;95.20
27567;DHT22;15006;48.584;9.186;2023-04-03T06:24:42;1.40;95.30
27567;DHT22;15006;48.584;9.186;2023-04-03T06:27:10;1.40;95.20
27567;DHT22;15006;48.584;9.186;2023-04-03T06:29:36;1.40;94.80
27567;DHT22;15006;48.584;9.186;2023-04-03T06:32:03;1.40;95.40
27567;DHT22;15006;48.584;9.186;2023-04-03T06:34:29;1.40;95.40
27567;DHT22;15006;48.584;9.186;2023-04-03T06:36:55;1.40;95.30
27567;DHT22;15006;48.584;9.186;2023-04-03T06:39:21;1.40;95.00
27567;DHT22;15006;48.584;9.186;2023-04-03T06:41:50;1.50;95.00
27567;DHT22;15006;48.584;9.186;2023-04-03T06:44:17;1.50;94.90
27567;DHT22;15006;48.584;9.186;2023-04-03T06:46:44;1.50;94.80
27567;DHT22;15006;48.584;9.186;2023-04-03T06:49:12;1.50;94.80
27567;DHT22;15006;48.584;9.186;2023-04-03T06:51:38;1.50;94.90
27567;DHT22;15006;48.584;9.186;2023-04-03T06:54:05;1.60;95.00
27567;DHT22;15006;48.584;9.186;2023-04-03T06:56:34;1.60;94.80
27567;DHT22;15006;48.584;9.186;2023-04-03T06:59:00;1.60;95.00
27567;DHT22;15006;48.584;9.186;2023-04-03T07:01:28;1.70;95.00
27567;DHT22;15006;48.584;9.186;2023-04-03T07:03:56;1.70;94.90
27567;DHT22;15006;48.584;9.186;2023-04-03T07:06:22;1.80;95.30
27567;DHT22;15006;48.584;9.186;2023-04-03T07:08:48;1.80;95.10
27567;DHT22;15006;48.584;9.186;2023-04-03T07:11:15;1.90;95.10
27567;DHT22;15006;48.584;9.186;2023-04-03T07:13:41;1.90;95.20
27567;DHT22;15006;48.584;9.186;2023-04-03T07:16:08;2.00;95.50
27567;DHT22;15006;48.584;9.186;2023-04-03T07:18:35;2.00;95.30
27567;DHT22;15006;48.584;9.186;2023-04-03T07:21:02;2.10;95.40
27567;DHT22;15006;48.584;9.186;2023-04-03T07:23:28;2.20;95.10
27567;DHT22;15006;48.584;9.186;2023-04-03T07:25:54;2.20;95.10
27567;DHT22;15006;48.584;9.186;2023-04-03T07:28:21;2.30;94.70
27567;DHT22;15006;48.584;9.186;2023-04-03T07:30:52;2.30;94.90
27567;DHT22;15006;48.584;9.186;2023-04-03T07:33:29;2.40;94.20
27567;DHT22;15006;48.584;9.186;2023-04-03T07:35:57;2.50;95.00
27567;DHT22;15006;48.584;9.186;2023-04-03T07:38:23;2.50;95.00
27567;DHT22;15006;48.584;9.186;2023-04-03T07:40:50;2.60;95.30
27567;DHT22;15006;48.584;9.186;2023-04-03T07:43:18;2.70;95.10
27567;DHT22;15006;48.584;9.186;2023-04-03T07:45:46;2.80;95.00
27567;DHT22;15006;48.584;9.186;2023-04-03T07:48:16;2.90;94.80
27567;DHT22;15006;48.584;9.186;2023-04-03T07:50:46;3.00;94.40
27567;DHT22;15006;48.584;9.186;2023-04-03T07:53:12;3.10;93.80
27567;DHT22;15006;48.584;9.186;2023-04-03T07:55:39;3.10;93.80
27567;DHT22;15006;48.584;9.186;2023-04-03T07:58:16;3.20;93.60
27567;DHT22;15006;48.584;9.186;2023-04-03T08:00:43;3.30;93.60
27567;DHT22;15006;48.584;9.186;2023-04-03T08:03:11;3.40;94.10
27567;DHT22;15006;48.584;9.186;2023-04-03T08:05:44;3.40;93.80
27567;DHT22;15006;48.584;9.186;2023-04-03T08:08:13;3.50;93.60
27567;DHT22;15006;48.584;9.186;2023-04-03T08:10:42;3.60;93.70
27567;DHT22;15006;48.584;9.186;2023-04-03T08:13:09;3.60;93.80
27567;DHT22;15006;48.584;9.186;2023-04-03T08:15:35;3.70;93.40
27567;DHT22;15006;48.584;9.186;2023-04-03T08:18:02;3.80;93.40
27567;DHT22;15006;48.584;9.186;2023-04-03T08:20:29;3.90;93.60
27567;DHT22;15006;48.584;9.186;2023-04-03T08:22:56;4.00;93.80
27567;DHT22;15006;48.584;9.186;2023-04-03T08:25:22;4.10;93.60
27567;DHT22;15006;48.584;9.186;2023-04-03T08:27:48;4.10;93.20
27567;DHT22;15006;48.584;9.186;2023-04-03T08:30:14;4.20;93.30
27567;DHT22;15006;48.584;9.186;2023-04-03T08:32:41;4.30;92.50
27567;DHT22;15006;48.584;9.186;2023-04-03T08:35:10;4.30;92.50
27567;DHT22;15006;48.584;9.186;2023-04-03T08:37:37;4.40;92.40
27567;DHT22;15006;48.584;9.186;2023-04-03T08:40:10;4.50;92.30
27567;DHT22;15006;48.584;9.186;2023-04-03T08:45:12;4.60;92.00
27567;DHT22;15006;48.584;9.186;2023-04-03T08:48:00;4.60;92.10
27567;DHT22;15006;48.584;9.186;2023-04-03T08:50:40;4.70;90.10
27567;DHT22;15006;48.584;9.186;2023-04-03T08:53:29;4.70;90.30
27567;DHT22;15006;48.584;9.186;2023-04-03T08:55:58;4.80;88.60
27567;DHT22;15006;48.584;9.186;2023-04-03T08:58:36;4.80;91.60
27567;DHT22;15006;48.584;9.186;2023-04-03T09:01:30;4.90;90.20
27567;DHT22;15006;48.584;9.186;2023-04-03T09:04:15;4.90;86.80
27567;DHT22;15006;48.584;9.186;2023-04-03T09:06:52;4.90;89.10
27567;DHT22;15006;48.584;9.186;2023-04-03T09:21:14;4.80;87.90
27567;DHT22;15006;48.584;9.186;2023-04-03T09:23:46;4.80;86.00
27567;DHT22;15006;48.584;9.186;2023-04-03T09:26:25;4.80;89.30
27567;DHT22;15006;48.584;9.186;2023-04-03T09:28:59;4.80;87.80
27567;DHT22;15006;48.584;9.186;2023-04-03T09:31:31;4.80;88.80
27567;DHT22;15006;48.584;9.186;2023-04-03T09:34:05;4.80;89.60
27567;DHT22;15006;48.584;9.186;2023-04-03T09:36:44;4.80;90.00
27567;DHT22;15006;48.584;9.186;2023-04-03T09:42:19;4.90;90.20
27567;DHT22;15006;48.584;9.186;2023-04-03T09:45:01;5.00;85.50
27567;DHT22;15006;48.584;9.186;2023-04-03T09:47:33;5.00;84.80
27567;DHT22;15006;48.584;9.186;2023-04-03T09:52:42;5.00;84.70
27567;DHT22;15006;48.584;9.186;2023-04-03T09:55:25;5.00;89.20
27567;DHT22;15006;48.584;9.186;2023-04-03T09:57:59;5.00;86.50
27567;DHT22;15006;48.584;9.186;2023-04-03T10:00:28;5.10;87.60
27567;DHT22;15006;48.584;9.186;2023-04-03T10:02:58;5.10;89.10
27567;DHT22;15006;48.584;9.186;2023-04-03T10:10:40;5.10;85.10
27567;DHT22;15006;48.584;9.186;2023-04-03T10:13:19;5.10;87.20
27567;DHT22;15006;48.584;9.186;2023-04-03T10:15:59;5.00;86.50
27567;DHT22;15006;48.584;9.186;2023-04-03T10:18:53;5.00;83.90
27567;DHT22;15006;48.584;9.186;2023-04-03T10:21:41;5.00;81.50
27567;DHT22;15006;48.584;9.186;2023-04-03T10:27:15;4.90;82.20
27567;DHT22;15006;48.584;9.186;2023-04-03T10:29:50;4.90;85.20
27567;DHT22;15006;48.584;9.186;2023-04-03T10:35:44;4.90;81.70
27567;DHT22;15006;48.584;9.186;2023-04-03T10:44:20;4.80;84.30
27567;DHT22;15006;48.584;9.186;2023-04-03T10:47:16;4.70;84.00
27567;DHT22;15006;48.584;9.186;2023-04-03T10:50:21;4.70;83.60
27567;DHT22;15006;48.584;9.186;2023-04-03T10:58:47;4.80;80.30
27567;DHT22;15006;48.584;9.186;2023-04-03T11:01:22;4.90;84.60
27567;DHT22;15006;48.584;9.186;2023-04-03T11:03:57;4.90;83.20
27567;DHT22;15006;48.584;9.186;2023-04-03T11:06:37;4.90;82.60
27567;DHT22;15006;48.584;9.186;2023-04-03T11:09:18;5.00;81.70
27567;DHT22;15006;48.584;9.186;2023-04-03T11:11:47;5.00;82.50
27567;DHT22;15006;48.584;9.186;2023-04-03T11:17:45;5.10;82.60
27567;DHT22;15006;48.584;9.186;2023-04-03T11:22:47;5.20;82.80
27567;DHT22;15006;48.584;9.186;2023-04-03T11:25:22;5.30;81.30
27567;DHT22;15006;48.584;9.186;2023-04-03T11:27:59;5.20;79.70
27567;DHT22;15006;48.584;9.186;2023-04-03T11:30:42;5.20;80.00
27567;DHT22;15006;48.584;9.186;2023-04-03T11:38:55;5.10;80.70
27567;DHT22;15006;48.584;9.186;2023-04-03T11:41:29;5.00;80.40
27567;DHT22;15006;48.584;9.186;2023-04-03T11:46:51;4.90;80.10
27567;DHT22;15006;48.584;9.186;2023-04-03T12:08:52;5.20;82.30
27567;DHT22;15006;48.584;9.186;2023-04-03T12:11:32;5.30;83.30
27567;DHT22;15006;48.584;9.186;2023-04-03T12:16:44;5.30;82.60
27567;DHT22;15006;48.584;9.186;2023-04-03T12:41:23;5.50;77.80
27567;DHT22;15006;48.584;9.186;2023-04-03T12:44:13;5.50;77.60
27567;DHT22;15006;48.584;9.186;2023-04-03T12:46:48;5.60;80.00
27567;DHT22;15006;48.584;9.186;2023-04-03T12:49:38;5.60;82.70
27567;DHT22;15006;48.584;9.186;2023-04-03T12:52:24;5.60;77.10
27567;DHT22;15006;48.584;9.186;2023-04-03T12:55:15;5.60;78.30
27567;DHT22;15006;48.584;9.186;2023-04-03T12:57:43;5.70;81.40
27567;DHT22;15006;48.584;9.186;2023-04-03T13:02:53;5.70;76.80
27567;DHT22;15006;48.584;9.186;2023-04-03T13:05:19;5.70;80.80
27567;DHT22;15006;48.584;9.186;2023-04-03T13:08:22;5.70;80.40
27567;DHT22;15006;48.584;9.186;2023-04-03T13:10:58;5.70;78.50
27567;DHT22;15006;48.584;9.186;2023-04-03T13:13:27;5.70;76.00
27567;DHT22;15006;48.584;9.186;2023-04-03T13:15:53;5.60;80.30
27567;DHT22;15006;48.584;9.186;2023-04-03T13:20:50;5.60;78.80
27567;DHT22;15006;48.584;9.186;2023-04-03T13:23:19;5.70;80.80
27567;DHT22;15006;48.584;9.186;2023-04-03T13:25:47;5.70;79.60
27567;DHT22;15006;48.584;9.186;2023-04-03T13:28:23;5.80;80.90
27567;DHT22;15006;48.584;9.186;2023-04-03T13:31:19;5.80;77.00
27567;DHT22;15006;48.584;9.186;2023-04-03T13:36:59;5.90;78.60
27567;DHT22;15006;48.584;9.186;2023-04-03T13:39:37;5.90;76.40
27567;DHT22;15006;48.584;9.186;2023-04-03T13:42:24;5.80;75.90
27567;DHT22;15006;48.584;9.186;2023-04-03T13:45:24;5.90;74.80
27567;DHT22;15006;48.584;9.186;2023-04-03T13:48:15;5.80;72.30
27567;DHT22;15006;48.584;9.186;2023-04-03T13:51:04;5.70;74.60
27567;DHT22;15006;48.584;9.186;2023-04-03T13:53:53;5.60;73.90
27567;DHT22;15006;48.584;9.186;2023-04-03T13:56:34;5.50;78.20
27567;DHT22;15006;48.584;9.186;2023-04-03T14:01:52;5.40;76.60
27567;DHT22;15006;48.584;9.186;2023-04-03T14:04:31;5.40;77.40
27567;DHT22;15006;48.584;9.186;2023-04-03T14:06:58;5.40;79.90
27567;DHT22;15006;48.584;9.186;2023-04-03T14:09:27;5.50;80.60
27567;DHT22;15006;48.584;9.186;2023-04-03T14:11:55;5.50;79.50
27567;DHT22;15006;48.584;9.186;2023-04-03T14:14:28;5.60;79.90
27567;DHT22;15006;48.584;9.186;2023-04-03T14:16:58;5.70;79.20
27567;DHT22;15006;48.584;9.186;2023-04-03T14:19:29;5.70;79.50
27567;DHT22;15006;48.584;9.186;2023-04-03T14:21:58;5.80;78.50
27567;DHT22;15006;48.584;9.186;2023-04-03T14:24:26;5.70;77.80
27567;DHT22;15006;48.584;9.186;2023-04-03T14:26:54;5.70;77.90
27567;DHT22;15006;48.584;9.186;2023-04-03T14:29:21;5.70;76.90
27567;DHT22;15006;48.584;9.186;2023-04-03T14:31:49;5.70;77.80
27567;DHT22;15006;48.584;9.186;2023-04-03T14:34:16;5.60;77.60
27567;DHT22;15006;48.584;9.186;2023-04-03T14:36:43;5.60;78.20
27567;DHT22;15006;48.584;9.186;2023-04-03T14:39:18;5.70;77.50
27567;DHT22;15006;48.584;9.186;2023-04-03T14:41:45;5.70;75.40
27567;DHT22;15006;48.584;9.186;2023-04-03T14:44:11;5.70;77.70
27567;DHT22;15006;48.584;9.186;2023-04-03T14:46:40;5.70;77.30
27567;DHT22;15006;48.584;9.186;2023-04-03T14:49:23;5.70;76.10
27567;DHT22;15006;48.584;9.186;2023-04-03T14:51:52;5.70;73.60
27567;DHT22;15006;48.584;9.186;2023-04-03T14:54:22;5.60;77.60
27567;DHT22;15006;48.584;9.186;2023-04-03T14:56:54;5.60;75.80
27567;DHT22;15006;48.584;9.186;2023-04-03T14:59:21;5.50;76.00
27567;DHT22;15006;48.584;9.186;2023-04-03T15:01:48;5.40;75.80
27567;DHT22;15006;48.584;9.186;2023-04-03T15:04:16;5.40;76.20
27567;DHT22;15006;48.584;9.186;2023-04-03T15:06:45;5.30;76.00
27567;DHT22;15006;48.584;9.186;2023-04-03T15:11:54;5.20;75.50
27567;DHT22;15006;48.584;9.186;2023-04-03T15:14:21;5.30;77.80
27567;DHT22;15006;48.584;9.186;2023-04-03T15:16:48;5.20;77.20
27567;DHT22;15006;48.584;9.186;2023-04-03T15:19:14;5.30;77.40
27567;DHT22;15006;48.584;9.186;2023-04-03T15:21:40;5.30;77.50
27567;DHT22;15006;48.584;9.186;2023-04-03T15:24:08;5.40;77.10
27567;DHT22;15006;48.584;9.186;2023-04-03T15:26:34;5.40;76.20
27567;DHT22;15006;48.584;9.186;2023-04-03T15:29:01;5.40;76.70
27567;DHT22;15006;48.584;9.186;2023-04-03T15:31:27;5.30;76.30
27567;DHT22;15006;48.584;9.186;2023-04-03T15:33:53;5.20;75.70
27567;DHT22;15006;48.584;9.186;2023-04-03T15:36:20;5.20;76.10
27567;DHT22;15006;48.584;9.186;2023-04-03T15:38:46;5.10;75.10
27567;DHT22;15006;48.584;9.186;2023-04-03T15:41:12;5.00;75.70
27567;DHT22;15006;48.584;9.186;2023-04-03T15:43:39;4.90;76.10
27567;DHT22;15006;48.584;9.186;2023-04-03T15:46:05;4.90;76.60
27567;DHT22;15006;48.584;9.186;2023-04-03T15:48:31;4.90;76.60
27567;DHT22;15006;48.584;9.186;2023-04-03T15:50:57;4.80;76.40
27567;DHT22;15006;48.584;9.186;2023-04-03T15:53:23;4.80;77.10
27567;DHT22;15006;48.584;9.186;2023-04-03T15:55:49;4.80;77.40
27567;DHT22;15006;48.584;9.186;2023-04-03T15:58:16;4.80;77.50
27567;DHT22;15006;48.584;9.186;2023-04-03T16:00:42;4.80;77.00
27567;DHT22;15006;48.584;9.186;2023-04-03T16:03:16;4.80;76.90
27567;DHT22;15006;48.584;9.186;2023-04-03T16:05:43;4.80;74.00
27567;DHT22;15006;48.584;9.186;2023-04-03T16:08:10;4.80;76.50
27567;DHT22;15006;48.584;9.186;2023-04-03T16:10:37;4.80;76.60
27567;DHT22;15006;48.584;9.186;2023-04-03T16:13:04;5.00;78.70
27567;DHT22;15006;48.584;9.186;2023-04-03T16:15:31;5.20;78.80
27567;DHT22;15006;48.584;9.186;2023-04-03T16:18:01;5.40;80.50
27567;DHT22;15006;48.584;9.186;2023-04-03T16:20:27;5.70;81.20
27567;DHT22;15006;48.584;9.186;2023-04-03T16:22:53;6.00;80.90
27567;DHT22;15006;48.584;9.186;2023-04-03T16:25:22;6.20;79.10
27567;DHT22;15006;48.584;9.186;2023-04-03T16:27:48;6.30;77.00
27567;DHT22;15006;48.584;9.186;2023-04-03T16:30:14;6.40;75.80
27567;DHT22;15006;48.584;9.186;2023-04-03T16:32:40;6.30;74.80
27567;DHT22;15006;48.584;9.186;2023-04-03T16:35:08;6.20;73.70
27567;DHT22;15006;48.584;9.186;2023-04-03T16:37:37;6.20;73.30
27567;DHT22;15006;48.584;9.186;2023-04-03T16:40:05;6.00;72.20
27567;DHT22;15006;48.584;9.186;2023-04-03T16:42:35;5.90;72.20
27567;DHT22;15006;48.584;9.186;2023-04-03T16:45:01;5.70;70.70
27567;DHT22;15006;48.584;9.186;2023-04-03T16:47:29;5.60;72.00
27567;DHT22;15006;48.584;9.186;2023-04-03T16:49:55;5.40;71.20
27567;DHT22;15006;48.584;9.186;2023-04-03T16:52:22;5.30;72.30
27567;DHT22;15006;48.584;9.186;2023-04-03T16:54:48;5.10;72.80
27567;DHT22;15006;48.584;9.186;2023-04-03T16:57:14;5.00;73.10
27567;DHT22;15006;48.584;9.186;2023-04-03T16:59:40;4.90;73.60
27567;DHT22;15006;48.584;9.186;2023-04-03T17:02:06;4.80;73.90
27567;DHT22;15006;48.584;9.186;2023-04-03T17:04:32;4.60;74.20
27567;DHT22;15006;48.584;9.186;2023-04-03T17:06:58;4.60;74.40
27567;DHT22;15006;48.584;9.186;2023-04-03T17:09:25;4.50;75.10
27567;DHT22;15006;48.584;9.186;2023-04-03T17:11:52;4.40;75.00
27567;DHT22;15006;48.584;9.186;2023-04-03T17:14:19;4.40;75.30
27567;DHT22;15006;48.584;9.186;2023-04-03T17:16:46;4.30;75.40
27567;DHT22;15006;48.584;9.186;2023-04-03T17:19:12;4.30;75.90
27567;DHT22;15006;48.584;9.186;2023-04-03T17:27:51;4.10;76.40
27567;DHT22;15006;48.584;9.186;2023-04-03T17:30:17;4.00;76.00
27567;DHT22;15006;48.584;9.186;2023-04-03T17:32:43;3.90;76.10
27567;DHT22;15006;48.584;9.186;2023-04-03T17:35:09;3.90;76.20
27567;DHT22;15006;48.584;9.186;2023-04-03T17:37:35;3.80;76.10
27567;DHT22;15006;48.584;9.186;2023-04-03T17:40:03;3.70;76.40
27567;DHT22;15006;48.584;9.186;2023-04-03T17:42:29;3.70;76.10
27567;DHT22;15006;48.584;9.186;2023-04-03T17:44:56;3.60;76.00
27567;DHT22;15006;48.584;9.186;2023-04-03T17:47:22;3.60;75.60
27567;DHT22;15006;48.584;9.186;2023-04-03T17:49:49;3.50;75.40
27567;DHT22;15006;48.584;9.186;2023-04-03T17:52:41;3.40;75.50
27567;DHT22;15006;48.584;9.186;2023-04-03T17:55:10;3.30;75.60
27567;DHT22;15006;48.584;9.186;2023-04-03T17:57:38;3.20;75.50
27567;DHT22;15006;48.584;9.186;2023-04-03T18:00:04;3.10;75.70
27567;DHT22;15006;48.584;9.186;2023-04-03T18:02:32;2.90;75.80
27567;DHT22;15006;48.584;9.186;2023-04-03T18:04:58;2.80;76.00
27567;DHT22;15006;48.584;9.186;2023-04-03T18:07:26;2.70;76.10